sensor_id;sensor_type;location;lat;lon;timestamp;P1;durP1;ratioP1;P2;durP2;ratioP2
63342;SDS011;49465;57.664;39.686;2023-01-20T00:01:33;30.52;;;14.63;;
63342;SDS011;49465;57.664;39.686;2023-01-20T00:04:10;26.33;;;14.13;;
63342;SDS011;49465;57.664;39.686;2023-01-20T00:06:39;30.15;;;13.63;;
63342;SDS011;49465;57.664;39.686;2023-01-20T00:09:06;30.85;;;13.55;;
63342;SDS011;49465;57.664;39.686;2023-01-20T00:11:33;25.80;;;12.80;;
63342;SDS011;49465;57.664;39.686;2023-01-20T00:14:00;29.05;;;13.48;;
63342;SDS011;49465;57.664;39.686;2023-01-20T00:16:30;28.55;;;14.48;;
63342;SDS011;49465;57.664;39.686;2023-01-20T00:19:00;26.27;;;12.98;;
63342;SDS011;49465;57.664;39.686;2023-01-20T00:21:29;33.10;;;15.13;;
63342;SDS011;49465;57.664;39.686;2023-01-20T00:23:59;28.25;;;16.35;;
63342;SDS011;49465;57.664;39.686;2023-01-20T00:26:25;29.90;;;16.02;;
63342;SDS011;49465;57.664;39.686;2023-01-20T00:28:52;37.53;;;17.17;;
63342;SDS011;49465;57.664;39.686;2023-01-20T00:33:59;36.30;;;18.38;;
63342;SDS011;49465;57.664;39.686;2023-01-20T00:36:34;30.92;;;17.52;;
63342;SDS011;49465;57.664;39.686;2023-01-20T00:39:09;31.73;;;17.63;;
63342;SDS011;49465;57.664;39.686;2023-01-20T00:41:35;32.97;;;17.35;;
63342;SDS011;49465;57.664;39.686;2023-01-20T00:44:07;31.10;;;17.73;;
63342;SDS011;49465;57.664;39.686;2023-01-20T00:46:36;32.97;;;18.67;;
63342;SDS011;49465;57.664;39.686;2023-01-20T00:49:06;35.63;;;20.02;;
63342;SDS011;49465;57.664;39.686;2023-01-20T00:51:45;34.92;;;20.40;;
63342;SDS011;49465;57.664;39.686;2023-01-20T00:54:14;34.78;;;21.17;;
63342;SDS011;49465;57.664;39.686;2023-01-20T00:56:43;32.25;;;19.60;;
63342;SDS011;49465;57.664;39.686;2023-01-20T00:59:10;32.15;;;19.20;;
63342;SDS011;49465;57.664;39.686;2023-01-20T01:01:39;27.38;;;17.52;;
63342;SDS011;49465;57.664;39.686;2023-01-20T01:04:11;26.88;;;16.17;;
63342;SDS011;49465;57.664;39.686;2023-01-20T01:06:41;29.23;;;16.55;;
63342;SDS011;49465;57.664;39.686;2023-01-20T01:09:12;28.20;;;15.38;;
63342;SDS011;49465;57.664;39.686;2023-01-20T01:11:42;26.23;;;15.30;;
63342;SDS011;49465;57.664;39.686;2023-01-20T01:14:08;22.95;;;14.82;;
63342;SDS011;49465;57.664;39.686;2023-01-20T01:16:41;22.27;;;14.35;;
63342;SDS011;49465;57.664;39.686;2023-01-20T01:19:08;24.13;;;14.23;;
63342;SDS011;49465;57.664;39.686;2023-01-20T01:21:38;24.08;;;15.05;;
63342;SDS011;49465;57.664;39.686;2023-01-20T01:24:04;22.65;;;13.77;;
63342;SDS011;49465;57.664;39.686;2023-01-20T01:26:36;25.75;;;13.18;;
63342;SDS011;49465;57.664;39.686;2023-01-20T01:29:02;22.58;;;13.00;;
63342;SDS011;49465;57.664;39.686;2023-01-20T01:31:31;18.65;;;11.68;;
63342;SDS011;49465;57.664;39.686;2023-01-20T01:34:06;21.98;;;12.07;;
63342;SDS011;49465;57.664;39.686;2023-01-20T01:36:33;19.42;;;11.65;;
63342;SDS011;49465;57.664;39.686;2023-01-20T01:39:02;19.95;;;12.65;;
63342;SDS011;49465;57.664;39.686;2023-01-20T01:41:34;18.15;;;11.18;;
63342;SDS011;49465;57.664;39.686;2023-01-20T01:44:05;18.67;;;10.88;;
63342;SDS011;49465;57.664;39.686;2023-01-20T01:46:41;20.25;;;11.00;;
63342;SDS011;49465;57.664;39.686;2023-01-20T01:49:27;17.75;;;10.52;;
63342;SDS011;49465;57.664;39.686;2023-01-20T01:52:00;16.50;;;10.43;;
63342;SDS011;49465;57.664;39.686;2023-01-20T01:57:09;17.58;;;10.77;;
63342;SDS011;49465;57.664;39.686;2023-01-20T01:59:42;15.65;;;9.85;;
63342;SDS011;49465;57.664;39.686;2023-01-20T02:02:14;20.02;;;11.55;;
63342;SDS011;49465;57.664;39.686;2023-01-20T02:04:43;20.13;;;11.90;;
63342;SDS011;49465;57.664;39.686;2023-01-20T02:07:13;17.95;;;11.70;;
63342;SDS011;49465;57.664;39.686;2023-01-20T02:09:47;19.08;;;12.75;;
63342;SDS011;49465;57.664;39.686;2023-01-20T02:12:19;20.20;;;13.20;;
63342;SDS011;49465;57.664;39.686;2023-01-20T02:14:53;21.83;;;13.20;;
63342;SDS011;49465;57.664;39.686;2023-01-20T02:17:34;23.65;;;13.50;;
63342;SDS011;49465;57.664;39.686;2023-01-20T02:37:24;29.60;;;16.25;;
63342;SDS011;49465;57.664;39.686;2023-01-20T02:45:27;27.38;;;16.13;;
63342;SDS011;49465;57.664;39.686;2023-01-20T02:48:11;30.67;;;17.23;;
63342;SDS011;49465;57.664;39.686;2023-01-20T02:53:59;29.17;;;15.93;;
63342;SDS011;49465;57.664;39.686;2023-01-20T02:56:32;29.17;;;16.73;;
63342;SDS011;49465;57.664;39.686;2023-01-20T02:59:07;30.00;;;16.27;;
63342;SDS011;49465;57.664;39.686;2023-01-20T03:01:54;27.80;;;16.02;;
63342;SDS011;49465;57.664;39.686;2023-01-20T03:04:51;25.35;;;14.60;;
63342;SDS011;49465;57.664;39.686;2023-01-20T03:07:36;25.55;;;14.80;;
63342;SDS011;49465;57.664;39.686;2023-01-20T03:10:12;23.38;;;15.13;;
63342;SDS011;49465;57.664;39.686;2023-01-20T03:13:47;24.98;;;15.10;;
63342;SDS011;49465;57.664;39.686;2023-01-20T03:18:32;22.95;;;14.30;;
63342;SDS011;49465;57.664;39.686;2023-01-20T03:21:01;23.27;;;13.63;;
63342;SDS011;49465;57.664;39.686;2023-01-20T03:23:34;21.38;;;13.80;;
63342;SDS011;49465;57.664;39.686;2023-01-20T03:26:15;21.70;;;13.73;;
63342;SDS011;49465;57.664;39.686;2023-01-20T03:28:46;24.15;;;13.75;;
63342;SDS011;49465;57.664;39.686;2023-01-20T03:31:20;22.55;;;13.63;;
63342;SDS011;49465;57.664;39.686;2023-01-20T03:33:58;25.33;;;13.63;;
63342;SDS011;49465;57.664;39.686;2023-01-20T03:36:30;24.50;;;14.65;;
63342;SDS011;49465;57.664;39.686;2023-01-20T03:39:02;27.08;;;14.27;;
63342;SDS011;49465;57.664;39.686;2023-01-20T03:52:41;24.15;;;13.73;;
63342;SDS011;49465;57.664;39.686;2023-01-20T03:55:25;21.63;;;13.60;;
63342;SDS011;49465;57.664;39.686;2023-01-20T03:58:01;21.67;;;13.43;;
63342;SDS011;49465;57.664;39.686;2023-01-20T04:00:32;22.52;;;13.15;;
63342;SDS011;49465;57.664;39.686;2023-01-20T04:03:16;24.40;;;13.52;;
63342;SDS011;49465;57.664;39.686;2023-01-20T04:05:52;24.05;;;13.20;;
63342;SDS011;49465;57.664;39.686;2023-01-20T04:08:27;23.80;;;13.52;;
63342;SDS011;49465;57.664;39.686;2023-01-20T04:11:03;23.40;;;13.55;;
63342;SDS011;49465;57.664;39.686;2023-01-20T04:13:34;23.23;;;13.82;;
63342;SDS011;49465;57.664;39.686;2023-01-20T04:16:14;23.38;;;13.45;;
63342;SDS011;49465;57.664;39.686;2023-01-20T04:18:49;21.20;;;13.15;;
63342;SDS011;49465;57.664;39.686;2023-01-20T04:21:34;22.17;;;13.15;;
63342;SDS011;49465;57.664;39.686;2023-01-20T04:24:25;21.60;;;12.65;;
63342;SDS011;49465;57.664;39.686;2023-01-20T04:27:01;23.13;;;13.15;;
63342;SDS011;49465;57.664;39.686;2023-01-20T04:29:28;22.20;;;13.70;;
63342;SDS011;49465;57.664;39.686;2023-01-20T04:32:08;23.38;;;13.95;;
63342;SDS011;49465;57.664;39.686;2023-01-20T04:34:40;29.10;;;14.23;;
63342;SDS011;49465;57.664;39.686;2023-01-20T04:37:09;23.92;;;13.60;;
63342;SDS011;49465;57.664;39.686;2023-01-20T04:39:41;26.15;;;14.20;;
63342;SDS011;49465;57.664;39.686;2023-01-20T04:42:15;25.30;;;13.88;;
63342;SDS011;49465;57.664;39.686;2023-01-20T04:44:48;25.65;;;14.45;;
63342;SDS011;49465;57.664;39.686;2023-01-20T04:47:15;29.58;;;14.68;;
63342;SDS011;49465;57.664;39.686;2023-01-20T04:49:41;28.35;;;15.55;;
63342;SDS011;49465;57.664;39.686;2023-01-20T04:52:16;29.00;;;15.40;;
63342;SDS011;49465;57.664;39.686;2023-01-20T04:54:54;27.75;;;14.85;;
63342;SDS011;49465;57.664;39.686;2023-01-20T04:57:24;28.42;;;15.63;;
63342;SDS011;49465;57.664;39.686;2023-01-20T04:59:58;26.17;;;15.25;;
63342;SDS011;49465;57.664;39.686;2023-01-20T05:02:25;26.20;;;15.15;;
63342;SDS011;49465;57.664;39.686;2023-01-20T05:04:56;23.90;;;15.10;;
63342;SDS011;49465;57.664;39.686;2023-01-20T05:07:26;24.50;;;14.40;;
63342;SDS011;49465;57.664;39.686;2023-01-20T05:10:00;26.05;;;15.07;;
63342;SDS011;49465;57.664;39.686;2023-01-20T05:12:29;23.27;;;14.13;;
63342;SDS011;49465;57.664;39.686;2023-01-20T05:15:03;27.60;;;14.75;;
63342;SDS011;49465;57.664;39.686;2023-01-20T05:17:33;24.50;;;14.88;;
63342;SDS011;49465;57.664;39.686;2023-01-20T05:20:00;26.58;;;15.30;;
63342;SDS011;49465;57.664;39.686;2023-01-20T05:22:29;28.25;;;15.45;;
63342;SDS011;49465;57.664;39.686;2023-01-20T05:24:58;26.15;;;15.18;;
63342;SDS011;49465;57.664;39.686;2023-01-20T05:27:27;27.83;;;15.45;;
63342;SDS011;49465;57.664;39.686;2023-01-20T05:29:54;26.52;;;15.48;;
63342;SDS011;49465;57.664;39.686;2023-01-20T05:32:26;28.02;;;15.63;;
63342;SDS011;49465;57.664;39.686;2023-01-20T05:34:58;26.73;;;16.30;;
63342;SDS011;49465;57.664;39.686;2023-01-20T05:37:31;27.90;;;16.00;;
63342;SDS011;49465;57.664;39.686;2023-01-20T05:40:00;28.23;;;16.35;;
63342;SDS011;49465;57.664;39.686;2023-01-20T05:42:26;26.95;;;15.57;;
63342;SDS011;49465;57.664;39.686;2023-01-20T05:44:56;28.88;;;15.93;;
63342;SDS011;49465;57.664;39.686;2023-01-20T05:47:25;27.80;;;15.98;;
63342;SDS011;49465;57.664;39.686;2023-01-20T05:49:55;26.23;;;15.32;;
63342;SDS011;49465;57.664;39.686;2023-01-20T05:52:27;26.48;;;15.95;;
63342;SDS011;49465;57.664;39.686;2023-01-20T05:54:54;30.08;;;15.90;;
63342;SDS011;49465;57.664;39.686;2023-01-20T05:57:22;31.60;;;15.68;;
63342;SDS011;49465;57.664;39.686;2023-01-20T05:59:49;27.73;;;15.32;;
63342;SDS011;49465;57.664;39.686;2023-01-20T06:02:17;28.88;;;16.08;;
63342;SDS011;49465;57.664;39.686;2023-01-20T06:04:44;26.45;;;16.38;;
63342;SDS011;49465;57.664;39.686;2023-01-20T06:07:11;29.35;;;16.75;;
63342;SDS011;49465;57.664;39.686;2023-01-20T06:09:41;28.23;;;16.33;;
63342;SDS011;49465;57.664;39.686;2023-01-20T06:12:10;28.75;;;16.67;;
63342;SDS011;49465;57.664;39.686;2023-01-20T06:14:42;28.42;;;16.13;;
63342;SDS011;49465;57.664;39.686;2023-01-20T06:17:14;28.33;;;16.65;;
63342;SDS011;49465;57.664;39.686;2023-01-20T06:19:43;29.02;;;16.83;;
63342;SDS011;49465;57.664;39.686;2023-01-20T06:22:12;29.98;;;16.98;;
63342;SDS011;49465;57.664;39.686;2023-01-20T06:24:39;30.10;;;17.23;;
63342;SDS011;49465;57.664;39.686;2023-01-20T06:27:11;32.00;;;17.38;;
63342;SDS011;49465;57.664;39.686;2023-01-20T06:29:43;32.22;;;18.38;;
63342;SDS011;49465;57.664;39.686;2023-01-20T06:32:17;32.10;;;17.83;;
63342;SDS011;49465;57.664;39.686;2023-01-20T06:34:46;35.88;;;17.70;;
63342;SDS011;49465;57.664;39.686;2023-01-20T06:37:17;31.90;;;17.30;;
63342;SDS011;49465;57.664;39.686;2023-01-20T06:39:49;32.20;;;17.83;;
63342;SDS011;49465;57.664;39.686;2023-01-20T06:42:21;30.92;;;18.25;;
63342;SDS011;49465;57.664;39.686;2023-01-20T06:44:50;30.92;;;17.17;;
63342;SDS011;49465;57.664;39.686;2023-01-20T06:47:22;31.55;;;17.52;;
63342;SDS011;49465;57.664;39.686;2023-01-20T06:50:02;31.63;;;18.23;;
63342;SDS011;49465;57.664;39.686;2023-01-20T06:52:28;32.90;;;17.55;;
63342;SDS011;49465;57.664;39.686;2023-01-20T06:55:09;31.90;;;17.55;;
63342;SDS011;49465;57.664;39.686;2023-01-20T06:57:36;31.42;;;17.63;;
63342;SDS011;49465;57.664;39.686;2023-01-20T07:00:02;36.38;;;17.88;;
63342;SDS011;49465;57.664;39.686;2023-01-20T07:02:47;31.38;;;17.58;;
63342;SDS011;49465;57.664;39.686;2023-01-20T07:05:23;32.63;;;18.38;;
63342;SDS011;49465;57.664;39.686;2023-01-20T07:07:56;31.27;;;18.33;;
63342;SDS011;49465;57.664;39.686;2023-01-20T07:13:11;29.33;;;17.02;;
63342;SDS011;49465;57.664;39.686;2023-01-20T07:15:41;30.33;;;17.50;;
63342;SDS011;49465;57.664;39.686;2023-01-20T07:18:16;31.30;;;17.85;;
63342;SDS011;49465;57.664;39.686;2023-01-20T07:20:46;31.83;;;17.38;;
63342;SDS011;49465;57.664;39.686;2023-01-20T07:23:26;32.35;;;16.85;;
63342;SDS011;49465;57.664;39.686;2023-01-20T07:25:59;30.13;;;17.58;;
63342;SDS011;49465;57.664;39.686;2023-01-20T07:28:56;32.20;;;17.63;;
63342;SDS011;49465;57.664;39.686;2023-01-20T07:31:28;31.98;;;17.00;;
63342;SDS011;49465;57.664;39.686;2023-01-20T07:34:03;33.45;;;17.85;;
63342;SDS011;49465;57.664;39.686;2023-01-20T07:36:41;32.13;;;17.17;;
63342;SDS011;49465;57.664;39.686;2023-01-20T07:39:20;28.02;;;16.65;;
63342;SDS011;49465;57.664;39.686;2023-01-20T07:41:52;30.98;;;17.20;;
63342;SDS011;49465;57.664;39.686;2023-01-20T07:44:27;29.48;;;16.90;;
63342;SDS011;49465;57.664;39.686;2023-01-20T07:47:08;32.17;;;17.27;;
63342;SDS011;49465;57.664;39.686;2023-01-20T07:49:36;30.25;;;16.40;;
63342;SDS011;49465;57.664;39.686;2023-01-20T07:52:09;28.85;;;16.17;;
63342;SDS011;49465;57.664;39.686;2023-01-20T07:54:50;29.90;;;16.50;;
63342;SDS011;49465;57.664;39.686;2023-01-20T07:57:25;30.83;;;15.70;;
63342;SDS011;49465;57.664;39.686;2023-01-20T08:00:03;29.65;;;16.52;;
63342;SDS011;49465;57.664;39.686;2023-01-20T08:02:36;32.63;;;17.13;;
63342;SDS011;49465;57.664;39.686;2023-01-20T08:05:08;30.02;;;16.67;;
63342;SDS011;49465;57.664;39.686;2023-01-20T08:07:39;29.92;;;17.08;;
63342;SDS011;49465;57.664;39.686;2023-01-20T08:10:14;30.05;;;16.85;;
63342;SDS011;49465;57.664;39.686;2023-01-20T08:12:51;26.40;;;16.83;;
63342;SDS011;49465;57.664;39.686;2023-01-20T08:15:22;35.65;;;17.35;;
63342;SDS011;49465;57.664;39.686;2023-01-20T08:17:56;28.05;;;16.40;;
63342;SDS011;49465;57.664;39.686;2023-01-20T08:20:31;24.65;;;14.90;;
63342;SDS011;49465;57.664;39.686;2023-01-20T08:23:07;26.92;;;15.80;;
63342;SDS011;49465;57.664;39.686;2023-01-20T08:25:36;31.88;;;16.92;;
63342;SDS011;49465;57.664;39.686;2023-01-20T08:28:15;29.50;;;16.15;;
63342;SDS011;49465;57.664;39.686;2023-01-20T08:30:52;27.48;;;16.05;;
63342;SDS011;49465;57.664;39.686;2023-01-20T08:33:19;25.42;;;15.75;;
63342;SDS011;49465;57.664;39.686;2023-01-20T08:36:07;26.40;;;15.85;;
63342;SDS011;49465;57.664;39.686;2023-01-20T08:38:46;27.40;;;15.65;;
63342;SDS011;49465;57.664;39.686;2023-01-20T08:41:23;28.50;;;16.33;;
63342;SDS011;49465;57.664;39.686;2023-01-20T08:43:57;30.02;;;16.40;;
63342;SDS011;49465;57.664;39.686;2023-01-20T08:46:28;30.35;;;16.33;;
63342;SDS011;49465;57.664;39.686;2023-01-20T08:48:58;28.20;;;16.00;;
63342;SDS011;49465;57.664;39.686;2023-01-20T08:51:28;27.58;;;16.73;;
63342;SDS011;49465;57.664;39.686;2023-01-20T08:54:09;27.67;;;15.75;;
63342;SDS011;49465;57.664;39.686;2023-01-20T08:56:40;28.08;;;16.67;;
63342;SDS011;49465;57.664;39.686;2023-01-20T08:59:17;25.33;;;15.70;;
63342;SDS011;49465;57.664;39.686;2023-01-20T09:01:50;30.67;;;16.40;;
63342;SDS011;49465;57.664;39.686;2023-01-20T09:04:19;26.50;;;16.08;;
63342;SDS011;49465;57.664;39.686;2023-01-20T09:06:51;28.25;;;16.42;;
63342;SDS011;49465;57.664;39.686;2023-01-20T09:09:30;26.45;;;15.68;;
63342;SDS011;49465;57.664;39.686;2023-01-20T09:12:15;24.67;;;14.98;;
63342;SDS011;49465;57.664;39.686;2023-01-20T09:14:46;24.15;;;15.25;;
63342;SDS011;49465;57.664;39.686;2023-01-20T09:17:18;27.63;;;15.68;;
63342;SDS011;49465;57.664;39.686;2023-01-20T09:19:47;28.30;;;15.75;;
63342;SDS011;49465;57.664;39.686;2023-01-20T09:22:18;28.42;;;15.02;;
63342;SDS011;49465;57.664;39.686;2023-01-20T09:24:47;26.67;;;16.02;;
63342;SDS011;49465;57.664;39.686;2023-01-20T09:27:22;27.33;;;15.80;;
63342;SDS011;49465;57.664;39.686;2023-01-20T09:29:57;26.00;;;15.43;;
63342;SDS011;49465;57.664;39.686;2023-01-20T09:32:31;28.50;;;15.18;;
63342;SDS011;49465;57.664;39.686;2023-01-20T09:34:58;26.83;;;15.63;;
63342;SDS011;49465;57.664;39.686;2023-01-20T09:37:27;26.58;;;15.18;;
63342;SDS011;49465;57.664;39.686;2023-01-20T09:40:23;24.73;;;15.13;;
63342;SDS011;49465;57.664;39.686;2023-01-20T09:56:11;28.08;;;15.82;;
63342;SDS011;49465;57.664;39.686;2023-01-20T10:01:50;24.08;;;15.40;;
63342;SDS011;49465;57.664;39.686;2023-01-20T10:04:46;28.80;;;15.65;;
63342;SDS011;49465;57.664;39.686;2023-01-20T10:07:27;25.40;;;15.48;;
63342;SDS011;49465;57.664;39.686;2023-01-20T10:12:59;25.00;;;15.18;;
63342;SDS011;49465;57.664;39.686;2023-01-20T10:15:52;27.35;;;15.20;;
63342;SDS011;49465;57.664;39.686;2023-01-20T10:18:36;27.63;;;15.77;;
63342;SDS011;49465;57.664;39.686;2023-01-20T10:21:21;28.27;;;15.43;;
63342;SDS011;49465;57.664;39.686;2023-01-20T10:24:23;28.50;;;15.13;;
63342;SDS011;49465;57.664;39.686;2023-01-20T10:27:11;27.40;;;15.32;;
63342;SDS011;49465;57.664;39.686;2023-01-20T10:29:48;25.67;;;15.57;;
63342;SDS011;49465;57.664;39.686;2023-01-20T10:32:48;29.38;;;15.45;;
63342;SDS011;49465;57.664;39.686;2023-01-20T10:35:42;26.48;;;15.25;;
63342;SDS011;49465;57.664;39.686;2023-01-20T10:43:50;27.73;;;15.23;;
63342;SDS011;49465;57.664;39.686;2023-01-20T10:58:15;24.52;;;14.60;;
63342;SDS011;49465;57.664;39.686;2023-01-20T11:01:00;26.67;;;15.38;;
63342;SDS011;49465;57.664;39.686;2023-01-20T11:03:41;23.95;;;13.88;;
63342;SDS011;49465;57.664;39.686;2023-01-20T11:06:19;24.10;;;15.23;;
63342;SDS011;49465;57.664;39.686;2023-01-20T11:08:52;24.83;;;14.68;;
63342;SDS011;49465;57.664;39.686;2023-01-20T11:11:26;24.08;;;14.85;;
63342;SDS011;49465;57.664;39.686;2023-01-20T11:13:54;26.02;;;15.30;;
63342;SDS011;49465;57.664;39.686;2023-01-20T11:16:24;27.58;;;14.95;;
63342;SDS011;49465;57.664;39.686;2023-01-20T11:18:59;26.63;;;15.30;;
63342;SDS011;49465;57.664;39.686;2023-01-20T11:21:35;27.98;;;15.68;;
63342;SDS011;49465;57.664;39.686;2023-01-20T11:27:03;26.90;;;14.40;;
63342;SDS011;49465;57.664;39.686;2023-01-20T11:29:47;26.45;;;15.07;;
63342;SDS011;49465;57.664;39.686;2023-01-20T11:32:33;24.83;;;14.15;;
63342;SDS011;49465;57.664;39.686;2023-01-20T11:35:18;25.10;;;14.55;;
63342;SDS011;49465;57.664;39.686;2023-01-20T11:37:50;25.80;;;14.73;;
63342;SDS011;49465;57.664;39.686;2023-01-20T11:40:37;28.77;;;15.25;;
63342;SDS011;49465;57.664;39.686;2023-01-20T11:43:28;25.88;;;14.75;;
63342;SDS011;49465;57.664;39.686;2023-01-20T11:48:46;28.00;;;14.13;;
63342;SDS011;49465;57.664;39.686;2023-01-20T11:51:21;27.02;;;14.85;;
63342;SDS011;49465;57.664;39.686;2023-01-20T11:54:04;30.42;;;14.98;;
63342;SDS011;49465;57.664;39.686;2023-01-20T11:56:42;29.73;;;14.93;;
63342;SDS011;49465;57.664;39.686;2023-01-20T11:59:32;27.17;;;14.65;;
63342;SDS011;49465;57.664;39.686;2023-01-20T12:04:49;26.15;;;14.73;;
63342;SDS011;49465;57.664;39.686;2023-01-20T12:10:43;28.65;;;15.10;;
63342;SDS011;49465;57.664;39.686;2023-01-20T12:13:20;25.08;;;14.35;;
63342;SDS011;49465;57.664;39.686;2023-01-20T12:15:59;29.08;;;14.15;;
63342;SDS011;49465;57.664;39.686;2023-01-20T12:18:39;26.05;;;14.38;;
63342;SDS011;49465;57.664;39.686;2023-01-20T12:21:14;27.15;;;14.20;;
63342;SDS011;49465;57.664;39.686;2023-01-20T12:24:06;25.60;;;13.65;;
63342;SDS011;49465;57.664;39.686;2023-01-20T12:26:46;26.27;;;14.65;;
63342;SDS011;49465;57.664;39.686;2023-01-20T12:29:30;27.23;;;14.77;;
63342;SDS011;49465;57.664;39.686;2023-01-20T12:32:10;29.58;;;14.70;;
63342;SDS011;49465;57.664;39.686;2023-01-20T12:34:37;27.52;;;13.93;;
63342;SDS011;49465;57.664;39.686;2023-01-20T12:37:25;23.50;;;14.10;;
63342;SDS011;49465;57.664;39.686;2023-01-20T12:40:24;26.52;;;14.63;;
63342;SDS011;49465;57.664;39.686;2023-01-20T12:43:10;25.80;;;13.73;;
63342;SDS011;49465;57.664;39.686;2023-01-20T12:51:42;24.00;;;13.50;;
63342;SDS011;49465;57.664;39.686;2023-01-20T12:54:25;26.15;;;13.80;;
63342;SDS011;49465;57.664;39.686;2023-01-20T13:00:16;22.02;;;13.18;;
63342;SDS011;49465;57.664;39.686;2023-01-20T13:06:47;29.92;;;14.07;;
63342;SDS011;49465;57.664;39.686;2023-01-20T13:12:02;23.88;;;12.95;;
63342;SDS011;49465;57.664;39.686;2023-01-20T13:15:01;24.60;;;13.35;;
63342;SDS011;49465;57.664;39.686;2023-01-20T13:20:39;24.13;;;13.30;;
63342;SDS011;49465;57.664;39.686;2023-01-20T13:23:13;23.88;;;13.05;;
63342;SDS011;49465;57.664;39.686;2023-01-20T13:25:44;22.52;;;13.07;;
63342;SDS011;49465;57.664;39.686;2023-01-20T13:28:24;21.95;;;13.20;;
63342;SDS011;49465;57.664;39.686;2023-01-20T13:30:56;24.85;;;12.82;;
63342;SDS011;49465;57.664;39.686;2023-01-20T13:36:13;25.00;;;13.18;;
63342;SDS011;49465;57.664;39.686;2023-01-20T13:38:47;25.92;;;13.07;;
63342;SDS011;49465;57.664;39.686;2023-01-20T13:41:47;22.42;;;12.68;;
63342;SDS011;49465;57.664;39.686;2023-01-20T13:47:03;24.85;;;13.35;;
63342;SDS011;49465;57.664;39.686;2023-01-20T13:55:27;22.98;;;12.50;;
63342;SDS011;49465;57.664;39.686;2023-01-20T13:58:20;26.13;;;17.27;;
63342;SDS011;49465;57.664;39.686;2023-01-20T14:01:01;21.45;;;12.20;;
63342;SDS011;49465;57.664;39.686;2023-01-20T14:03:35;23.88;;;11.88;;
63342;SDS011;49465;57.664;39.686;2023-01-20T14:08:41;19.58;;;11.82;;
63342;SDS011;49465;57.664;39.686;2023-01-20T14:11:25;26.35;;;12.68;;
63342;SDS011;49465;57.664;39.686;2023-01-20T14:13:57;21.88;;;12.82;;
63342;SDS011;49465;57.664;39.686;2023-01-20T14:21:55;25.90;;;12.55;;
63342;SDS011;49465;57.664;39.686;2023-01-20T14:24:35;20.48;;;12.48;;
63342;SDS011;49465;57.664;39.686;2023-01-20T14:27:08;22.40;;;12.68;;
63342;SDS011;49465;57.664;39.686;2023-01-20T14:29:49;24.15;;;12.88;;
63342;SDS011;49465;57.664;39.686;2023-01-20T14:32:19;25.73;;;12.60;;
63342;SDS011;49465;57.664;39.686;2023-01-20T14:34:51;19.35;;;11.73;;
63342;SDS011;49465;57.664;39.686;2023-01-20T14:42:43;20.25;;;11.63;;
63342;SDS011;49465;57.664;39.686;2023-01-20T14:45:27;23.30;;;13.02;;
63342;SDS011;49465;57.664;39.686;2023-01-20T14:47:58;21.63;;;11.52;;
63342;SDS011;49465;57.664;39.686;2023-01-20T14:50:29;21.38;;;12.50;;
63342;SDS011;49465;57.664;39.686;2023-01-20T14:52:55;22.42;;;11.65;;
63342;SDS011;49465;57.664;39.686;2023-01-20T14:58:14;19.95;;;12.10;;
63342;SDS011;49465;57.664;39.686;2023-01-20T15:00:48;21.20;;;11.65;;
63342;SDS011;49465;57.664;39.686;2023-01-20T15:03:23;24.52;;;11.85;;
63342;SDS011;49465;57.664;39.686;2023-01-20T15:08:53;19.52;;;11.25;;
63342;SDS011;49465;57.664;39.686;2023-01-20T15:11:25;23.20;;;11.63;;
63342;SDS011;49465;57.664;39.686;2023-01-20T15:19:16;19.15;;;11.50;;
63342;SDS011;49465;57.664;39.686;2023-01-20T15:21:53;17.35;;;11.45;;
63342;SDS011;49465;57.664;39.686;2023-01-20T15:24:42;24.15;;;11.55;;
63342;SDS011;49465;57.664;39.686;2023-01-20T15:27:21;19.55;;;11.48;;
63342;SDS011;49465;57.664;39.686;2023-01-20T15:32:54;21.33;;;11.18;;
63342;SDS011;49465;57.664;39.686;2023-01-20T15:35:42;19.33;;;11.15;;
63342;SDS011;49465;57.664;39.686;2023-01-20T15:38:32;16.90;;;10.40;;
63342;SDS011;49465;57.664;39.686;2023-01-20T15:40:58;18.77;;;10.48;;
63342;SDS011;49465;57.664;39.686;2023-01-20T15:43:24;18.83;;;10.93;;
63342;SDS011;49465;57.664;39.686;2023-01-20T15:45:56;20.10;;;11.55;;
63342;SDS011;49465;57.664;39.686;2023-01-20T15:48:22;18.85;;;10.75;;
63342;SDS011;49465;57.664;39.686;2023-01-20T15:50:51;18.48;;;11.07;;
63342;SDS011;49465;57.664;39.686;2023-01-20T15:53:20;18.88;;;10.88;;
63342;SDS011;49465;57.664;39.686;2023-01-20T15:55:47;20.17;;;10.68;;
63342;SDS011;49465;57.664;39.686;2023-01-20T15:58:21;18.50;;;10.23;;
63342;SDS011;49465;57.664;39.686;2023-01-20T16:00:49;21.10;;;10.50;;
63342;SDS011;49465;57.664;39.686;2023-01-20T16:03:16;18.60;;;10.23;;
63342;SDS011;49465;57.664;39.686;2023-01-20T16:05:46;16.55;;;10.02;;
63342;SDS011;49465;57.664;39.686;2023-01-20T16:08:18;19.23;;;10.40;;
63342;SDS011;49465;57.664;39.686;2023-01-20T16:10:47;16.27;;;10.10;;
63342;SDS011;49465;57.664;39.686;2023-01-20T16:13:16;21.00;;;9.98;;
63342;SDS011;49465;57.664;39.686;2023-01-20T16:15:46;17.90;;;10.40;;
63342;SDS011;49465;57.664;39.686;2023-01-20T16:18:16;16.25;;;9.25;;
63342;SDS011;49465;57.664;39.686;2023-01-20T16:20:48;19.10;;;9.68;;
63342;SDS011;49465;57.664;39.686;2023-01-20T16:23:17;18.52;;;9.50;;
63342;SDS011;49465;57.664;39.686;2023-01-20T16:25:46;13.50;;;8.88;;
63342;SDS011;49465;57.664;39.686;2023-01-20T16:28:13;14.48;;;9.38;;
63342;SDS011;49465;57.664;39.686;2023-01-20T16:30:58;14.75;;;9.32;;
63342;SDS011;49465;57.664;39.686;2023-01-20T16:33:30;15.05;;;9.43;;
63342;SDS011;49465;57.664;39.686;2023-01-20T16:36:05;15.15;;;9.13;;
63342;SDS011;49465;57.664;39.686;2023-01-20T16:38:42;16.00;;;8.73;;
63342;SDS011;49465;57.664;39.686;2023-01-20T16:43:51;15.82;;;8.93;;
63342;SDS011;49465;57.664;39.686;2023-01-20T16:46:29;15.82;;;9.45;;
63342;SDS011;49465;57.664;39.686;2023-01-20T16:49:02;27.50;;;17.75;;
63342;SDS011;49465;57.664;39.686;2023-01-20T16:51:42;31.73;;;21.80;;
63342;SDS011;49465;57.664;39.686;2023-01-20T16:54:12;28.23;;;19.75;;
63342;SDS011;49465;57.664;39.686;2023-01-20T16:59:22;16.40;;;9.40;;
63342;SDS011;49465;57.664;39.686;2023-01-20T17:01:53;17.80;;;9.35;;
63342;SDS011;49465;57.664;39.686;2023-01-20T17:04:20;15.85;;;9.32;;
63342;SDS011;49465;57.664;39.686;2023-01-20T17:06:49;16.05;;;9.30;;
63342;SDS011;49465;57.664;39.686;2023-01-20T17:09:20;16.55;;;9.50;;
63342;SDS011;49465;57.664;39.686;2023-01-20T17:11:46;14.80;;;8.88;;
63342;SDS011;49465;57.664;39.686;2023-01-20T17:14:18;16.17;;;9.68;;
63342;SDS011;49465;57.664;39.686;2023-01-20T17:16:53;21.75;;;11.85;;
63342;SDS011;49465;57.664;39.686;2023-01-20T17:19:22;16.60;;;9.45;;
63342;SDS011;49465;57.664;39.686;2023-01-20T17:21:49;15.32;;;8.98;;
63342;SDS011;49465;57.664;39.686;2023-01-20T17:24:15;14.50;;;8.90;;
63342;SDS011;49465;57.664;39.686;2023-01-20T17:26:45;14.43;;;8.98;;
63342;SDS011;49465;57.664;39.686;2023-01-20T17:29:15;14.80;;;8.45;;
63342;SDS011;49465;57.664;39.686;2023-01-20T17:31:48;13.32;;;8.23;;